Time,TemperatureF,DewpointF,PressureIn,WindDirection,WindDirectionDegrees,WindSpeedMPH,WindSpeedGustMPH,Humidity,HourlyPrecipIn,Conditions,Clouds,dailyrainin,SolarRadiationWatts/m^2,SoftwareType,DateUTC
2013-05-26 00:02:00,67.0,58.0,-100.00,ENE,60,4.0,-999.0,70,0.00,,,-99.99,0.000000,,2013-05-26 04:02:00,
2013-05-26 00:12:00,67.0,58.0,-100.00,NE,54,5.0,-999.0,71,0.00,,,-99.99,0.000000,,2013-05-26 04:12:00,
2013-05-26 00:23:00,67.0,58.0,-100.00,NE,54,5.0,-999.0,71,0.00,,,-99.99,0.000000,,2013-05-26 04:23:00,
2013-05-26 00:33:00,67.0,57.0,-100.00,NE,53,5.0,-999.0,71,0.00,,,-99.99,0.000000,,2013-05-26 04:33:00,
2013-05-26 00:42:00,66.0,57.0,-100.00,NE,56,4.0,-999.0,72,0.00,,,-99.99,0.000000,,2013-05-26 04:42:00,
2013-05-26 00:52:00,66.0,57.0,-100.00,NE,56,4.0,-999.0,72,0.00,,,-99.99,0.000000,,2013-05-26 04:52:00,
2013-05-26 01:02:00,66.0,57.0,-100.00,NE,55,4.0,-999.0,74,0.00,,,-99.99,0.000000,,2013-05-26 05:02:00,
2013-05-26 01:12:00,66.0,57.0,-100.00,ENE,58,5.0,-999.0,74,0.00,,,-99.99,0.000000,,2013-05-26 05:12:00,
2013-05-26 01:22:00,66.0,57.0,-100.00,ENE,58,5.0,-999.0,74,0.00,,,-99.99,0.000000,,2013-05-26 05:22:00,
2013-05-26 01:32:00,65.0,57.0,-100.00,ENE,66,4.0,-999.0,75,0.00,,,-99.99,0.000000,,2013-05-26 05:32:00,
2013-05-26 01:42:00,65.0,57.0,-100.00,ENE,66,3.0,-999.0,77,0.00,,,-99.99,0.000000,,2013-05-26 05:42:00,
2013-05-26 01:52:00,65.0,57.0,-100.00,ENE,66,3.0,-999.0,77,0.00,,,-99.99,0.000000,,2013-05-26 05:52:00,
2013-05-26 02:01:00,64.0,58.0,-100.00,ENE,61,3.0,-999.0,78,0.00,,,-99.99,0.000000,,2013-05-26 06:01:00,
2013-05-26 02:12:00,64.0,57.0,-100.00,East,80,3.0,-999.0,79,0.00,,,-99.99,0.000000,,2013-05-26 06:12:00,
2013-05-26 02:22:00,64.0,57.0,-100.00,East,80,3.0,-999.0,79,0.00,,,-99.99,0.000000,,2013-05-26 06:22:00,
2013-05-26 02:32:00,63.0,57.0,-100.00,East,94,3.0,-999.0,81,0.00,,,-99.99,0.000000,,2013-05-26 06:32:00,
2013-05-26 02:42:00,62.0,57.0,-100.00,East,80,3.0,-999.0,83,0.00,,,-99.99,0.000000,,2013-05-26 06:42:00,
2013-05-26 02:52:00,62.0,57.0,-100.00,East,80,3.0,-999.0,83,0.00,,,-99.99,0.000000,,2013-05-26 06:52:00,
2013-05-26 03:01:00,61.0,57.0,-100.00,ESE,107,2.0,-999.0,85,0.00,,,-99.99,0.000000,,2013-05-26 07:01:00,
2013-05-26 03:11:00,61.0,57.0,-100.00,East,95,3.0,-999.0,87,0.00,,,-99.99,0.000000,,2013-05-26 07:11:00,
2013-05-26 03:22:00,61.0,57.0,-100.00,East,95,3.0,-999.0,87,0.00,,,-99.99,0.000000,,2013-05-26 07:22:00,
2013-05-26 03:32:00,61.0,58.0,-100.00,East,89,3.0,-999.0,87,0.00,,,-99.99,0.000000,,2013-05-26 07:32:00,
2013-05-26 03:42:00,61.0,57.0,-100.00,ESE,104,2.0,-999.0,87,0.00,,,-99.99,0.000000,,2013-05-26 07:42:00,
2013-05-26 03:52:00,61.0,57.0,-100.00,ESE,104,2.0,-999.0,87,0.00,,,-99.99,0.000000,,2013-05-26 07:52:00,
2013-05-26 04:01:00,60.0,57.0,-100.00,East,96,2.0,-999.0,89,0.00,,,-99.99,0.000000,,2013-05-26 08:01:00,
2013-05-26 04:12:00,60.0,57.0,-100.00,East,100,3.0,-999.0,90,0.00,,,-99.99,0.000000,,2013-05-26 08:12:00,
2013-05-26 04:21:00,60.0,57.0,-100.00,East,100,3.0,-999.0,90,0.00,,,-99.99,0.000000,,2013-05-26 08:21:00,
2013-05-26 04:32:00,59.0,56.0,-100.00,ESE,121,1.0,-999.0,90,0.00,,,-99.99,0.000000,,2013-05-26 08:32:00,
2013-05-26 04:42:00,59.0,57.0,-100.00,East,80,1.0,-999.0,91,0.00,,,-99.99,0.000000,,2013-05-26 08:42:00,
2013-05-26 04:53:00,59.0,57.0,-100.00,East,80,1.0,-999.0,91,0.00,,,-99.99,0.000000,,2013-05-26 08:53:00,
2013-05-26 05:01:00,59.0,57.0,-100.00,ENE,66,1.0,-999.0,92,0.00,,,-99.99,0.000000,,2013-05-26 09:01:00,
2013-05-26 05:11:00,59.0,57.0,-100.00,ENE,64,1.0,-999.0,93,0.00,,,-99.99,0.000000,,2013-05-26 09:11:00,
2013-05-26 05:21:00,59.0,57.0,-100.00,ENE,64,1.0,-999.0,93,0.00,,,-99.99,0.000000,,2013-05-26 09:21:00,
2013-05-26 05:33:00,58.0,56.0,-100.00,East,96,1.0,-999.0,93,0.00,,,-99.99,0.000000,,2013-05-26 09:33:00,
2013-05-26 05:43:00,58.0,56.0,-100.00,ESE,110,1.0,-999.0,93,0.00,,,-99.99,0.000000,,2013-05-26 09:43:00,
2013-05-26 05:53:00,58.0,56.0,-100.00,ESE,110,1.0,-999.0,93,0.00,,,-99.99,0.000000,,2013-05-26 09:53:00,
2013-05-26 06:02:00,58.0,56.0,-100.00,SE,134,1.0,-999.0,93,0.00,,,-99.99,0.000000,,2013-05-26 10:02:00,
2013-05-26 06:12:00,58.0,56.0,-100.00,East,99,1.0,-999.0,93,0.00,,,-99.99,0.000000,,2013-05-26 10:12:00,
2013-05-26 06:23:00,58.0,56.0,-100.00,East,99,1.0,-999.0,93,0.00,,,-99.99,0.000000,,2013-05-26 10:23:00,
2013-05-26 06:33:00,58.0,56.0,-100.00,East,99,1.0,-999.0,93,0.00,,,-99.99,0.000000,,2013-05-26 10:33:00,
2013-05-26 06:42:00,58.0,56.0,-100.00,ESE,120,2.0,-999.0,93,0.00,,,-99.99,1.500000,,2013-05-26 10:42:00,
2013-05-26 06:52:00,58.0,56.0,-100.00,ESE,120,2.0,-999.0,93,0.00,,,-99.99,1.500000,,2013-05-26 10:52:00,
2013-05-26 07:03:00,58.0,56.0,-100.00,SE,143,1.0,-999.0,93,0.00,,,-99.99,7.600000,,2013-05-26 11:03:00,
2013-05-26 07:11:00,59.0,57.0,-100.00,SE,127,0.0,-999.0,94,0.00,,,-99.99,35.099998,,2013-05-26 11:11:00,
2013-05-26 07:22:00,59.0,57.0,-100.00,SE,127,0.0,-999.0,94,0.00,,,-99.99,35.099998,,2013-05-26 11:22:00,
2013-05-26 07:32:00,59.0,57.0,-100.00,SE,127,0.0,-999.0,94,0.00,,,-99.99,35.099998,,2013-05-26 11:32:00,
2013-05-26 07:42:00,63.0,61.0,-100.00,North,9,1.0,-999.0,92,0.00,,,-99.99,27.100000,,2013-05-26 11:42:00,
2013-05-26 07:52:00,63.0,61.0,-100.00,North,9,1.0,-999.0,92,0.00,,,-99.99,27.100000,,2013-05-26 11:52:00,
2013-05-26 08:02:00,67.0,63.0,-100.00,NE,35,1.0,-999.0,86,0.00,,,-99.99,43.299999,,2013-05-26 12:02:00,
2013-05-26 08:12:00,69.0,63.0,-100.00,ENE,63,1.0,-999.0,79,0.00,,,-99.99,139.300003,,2013-05-26 12:12:00,
2013-05-26 08:21:00,69.0,63.0,-100.00,ENE,63,1.0,-999.0,79,0.00,,,-99.99,139.300003,,2013-05-26 12:21:00,
2013-05-26 08:32:00,71.0,61.0,-100.00,ENE,63,3.0,-999.0,72,0.00,,,-99.99,215.100006,,2013-05-26 12:32:00,
2013-05-26 08:42:00,72.0,61.0,-100.00,East,91,3.0,-999.0,68,0.00,,,-99.99,271.899994,,2013-05-26 12:42:00,
2013-05-26 08:52:00,72.0,61.0,-100.00,East,91,3.0,-999.0,68,0.00,,,-99.99,271.899994,,2013-05-26 12:52:00,
2013-05-26 09:02:00,73.0,61.0,-100.00,ENE,75,3.0,-999.0,65,0.00,,,-99.99,284.399994,,2013-05-26 13:02:00,
2013-05-26 09:11:00,74.0,59.0,-100.00,ENE,67,5.0,-999.0,60,0.00,,,-99.99,421.799988,,2013-05-26 13:11:00,
2013-05-26 09:21:00,74.0,59.0,-100.00,ENE,67,5.0,-999.0,60,0.00,,,-99.99,421.799988,,2013-05-26 13:21:00,
2013-05-26 09:32:00,74.0,58.0,-100.00,ENE,66,5.0,-999.0,56,0.00,,,-99.99,479.100006,,2013-05-26 13:32:00,
2013-05-26 09:42:00,74.0,57.0,-100.00,ENE,72,6.0,-999.0,54,0.00,,,-99.99,509.700012,,2013-05-26 13:42:00,
2013-05-26 09:52:00,74.0,57.0,-100.00,ENE,72,6.0,-999.0,54,0.00,,,-99.99,509.700012,,2013-05-26 13:52:00,
2013-05-26 10:02:00,75.0,58.0,-100.00,ENE,75,5.0,-999.0,55,0.00,,,-99.99,559.299988,,2013-05-26 14:02:00,
2013-05-26 10:11:00,76.0,57.0,-100.00,East,92,6.0,-999.0,52,0.00,,,-99.99,599.700012,,2013-05-26 14:11:00,
2013-05-26 10:21:00,76.0,57.0,-100.00,East,92,6.0,-999.0,52,0.00,,,-99.99,599.700012,,2013-05-26 14:21:00,
2013-05-26 10:32:00,76.0,56.0,-100.00,ENE,76,7.0,-999.0,49,0.00,,,-99.99,659.099976,,2013-05-26 14:32:00,
2013-05-26 10:42:00,77.0,56.0,-100.00,ESE,103,7.0,-999.0,48,0.00,,,-99.99,702.000000,,2013-05-26 14:42:00,
2013-05-26 10:52:00,77.0,56.0,-100.00,ESE,103,7.0,-999.0,48,0.00,,,-99.99,702.000000,,2013-05-26 14:52:00,
2013-05-26 11:01:00,77.0,56.0,-100.00,ENE,70,7.0,-999.0,48,0.00,,,-99.99,734.000000,,2013-05-26 15:01:00,
2013-05-26 11:12:00,78.0,55.0,-100.00,ENE,60,6.0,-999.0,45,0.00,,,-99.99,783.000000,,2013-05-26 15:12:00,
2013-05-26 11:22:00,78.0,55.0,-100.00,ENE,60,6.0,-999.0,45,0.00,,,-99.99,783.000000,,2013-05-26 15:22:00,
2013-05-26 11:33:00,78.0,55.0,-100.00,East,81,6.0,-999.0,45,0.00,,,-99.99,816.000000,,2013-05-26 15:33:00,
2013-05-26 11:43:00,79.0,55.0,-100.00,ENE,70,7.0,-999.0,44,0.00,,,-99.99,836.000000,,2013-05-26 15:43:00,
2013-05-26 11:53:00,79.0,55.0,-100.00,ENE,70,7.0,-999.0,44,0.00,,,-99.99,836.000000,,2013-05-26 15:53:00,
2013-05-26 12:03:00,79.0,55.0,-100.00,NE,54,7.0,-999.0,43,0.00,,,-99.99,864.000000,,2013-05-26 16:03:00,
2013-05-26 12:12:00,80.0,56.0,-100.00,ENE,76,7.0,-999.0,43,0.00,,,-99.99,888.000000,,2013-05-26 16:12:00,
2013-05-26 12:23:00,80.0,56.0,-100.00,ENE,76,7.0,-999.0,43,0.00,,,-99.99,888.000000,,2013-05-26 16:23:00,
2013-05-26 12:33:00,80.0,55.0,-100.00,NE,37,8.0,-999.0,41,0.00,,,-99.99,893.000000,,2013-05-26 16:33:00,
2013-05-26 12:42:00,80.0,54.0,-100.00,ENE,60,6.0,-999.0,40,0.00,,,-99.99,932.000000,,2013-05-26 16:42:00,
2013-05-26 12:53:00,80.0,54.0,-100.00,ENE,60,6.0,-999.0,40,0.00,,,-99.99,932.000000,,2013-05-26 16:53:00,
2013-05-26 13:02:00,81.0,54.0,-100.00,ENE,64,6.0,-999.0,38,0.00,,,-99.99,921.000000,,2013-05-26 17:02:00,
2013-05-26 13:11:00,82.0,54.0,-100.00,NNE,26,7.0,-999.0,38,0.00,,,-99.99,931.000000,,2013-05-26 17:11:00,
2013-05-26 13:22:00,82.0,54.0,-100.00,NNE,26,7.0,-999.0,38,0.00,,,-99.99,931.000000,,2013-05-26 17:22:00,
2013-05-26 13:32:00,82.0,54.0,-100.00,NE,56,7.0,-999.0,37,0.00,,,-99.99,944.000000,,2013-05-26 17:32:00,
2013-05-26 13:42:00,82.0,54.0,-100.00,NE,39,6.0,-999.0,37,0.00,,,-99.99,928.000000,,2013-05-26 17:42:00,
2013-05-26 13:52:00,82.0,54.0,-100.00,NE,39,6.0,-999.0,37,0.00,,,-99.99,928.000000,,2013-05-26 17:52:00,
2013-05-26 14:01:00,83.0,55.0,-100.00,East,85,6.0,-999.0,37,0.00,,,-99.99,942.000000,,2013-05-26 18:01:00,
2013-05-26 14:12:00,83.0,54.0,-100.00,NNE,26,5.0,-999.0,37,0.00,,,-99.99,935.000000,,2013-05-26 18:12:00,
2013-05-26 14:21:00,83.0,54.0,-100.00,NNE,26,5.0,-999.0,37,0.00,,,-99.99,935.000000,,2013-05-26 18:21:00,
2013-05-26 14:32:00,84.0,54.0,-100.00,East,101,5.0,-999.0,36,0.00,,,-99.99,916.000000,,2013-05-26 18:32:00,
2013-05-26 14:42:00,85.0,56.0,-100.00,NE,40,6.0,-999.0,37,0.00,,,-99.99,909.000000,,2013-05-26 18:42:00,
2013-05-26 14:52:00,85.0,56.0,-100.00,NE,40,6.0,-999.0,37,0.00,,,-99.99,909.000000,,2013-05-26 18:52:00,
2013-05-26 15:01:00,85.0,56.0,-100.00,ESE,119,6.0,-999.0,36,0.00,,,-99.99,893.000000,,2013-05-26 19:01:00,
2013-05-26 15:11:00,85.0,56.0,-100.00,ENE,72,4.0,-999.0,36,0.00,,,-99.99,882.000000,,2013-05-26 19:11:00,
2013-05-26 15:22:00,85.0,56.0,-100.00,ENE,72,4.0,-999.0,36,0.00,,,-99.99,882.000000,,2013-05-26 19:22:00,
2013-05-26 15:32:00,85.0,57.0,-100.00,NE,48,5.0,-999.0,37,0.00,,,-99.99,801.000000,,2013-05-26 19:32:00,
2013-05-26 15:42:00,84.0,54.0,-100.00,NE,53,7.0,-999.0,35,0.00,,,-99.99,624.099976,,2013-05-26 19:42:00,
2013-05-26 15:52:00,84.0,54.0,-100.00,NE,53,7.0,-999.0,35,0.00,,,-99.99,624.099976,,2013-05-26 19:52:00,
2013-05-26 16:02:00,85.0,54.0,-100.00,ENE,73,8.0,-999.0,34,0.00,,,-99.99,699.400024,,2013-05-26 20:02:00,
2013-05-26 16:11:00,85.0,54.0,-100.00,ENE,68,6.0,-999.0,34,0.00,,,-99.99,676.200012,,2013-05-26 20:11:00,
2013-05-26 16:22:00,85.0,54.0,-100.00,ENE,68,6.0,-999.0,34,0.00,,,-99.99,676.200012,,2013-05-26 20:22:00,
2013-05-26 16:32:00,85.0,55.0,-100.00,NE,51,9.0,-999.0,36,0.00,,,-99.99,608.099976,,2013-05-26 20:32:00,
2013-05-26 16:42:00,85.0,55.0,-100.00,NE,51,9.0,-999.0,36,0.00,,,-99.99,608.099976,,2013-05-26 20:42:00,
2013-05-26 16:52:00,84.0,56.0,-100.00,NE,47,10.0,-999.0,37,0.00,,,-99.99,394.799988,,2013-05-26 20:52:00,
2013-05-26 17:02:00,83.0,56.0,-100.00,NE,51,9.0,-999.0,38,0.00,,,-99.99,330.500000,,2013-05-26 21:02:00,
2013-05-26 17:11:00,83.0,56.0,-100.00,NE,54,10.0,-999.0,38,0.00,,,-99.99,568.799988,,2013-05-26 21:11:00,
2013-05-26 17:22:00,83.0,56.0,-100.00,NE,54,10.0,-999.0,38,0.00,,,-99.99,568.799988,,2013-05-26 21:22:00,
2013-05-26 17:33:00,84.0,56.0,-100.00,ENE,59,9.0,-999.0,38,0.00,,,-99.99,498.200012,,2013-05-26 21:33:00,
2013-05-26 17:43:00,83.0,56.0,-100.00,ENE,75,10.0,-999.0,40,0.00,,,-99.99,321.600006,,2013-05-26 21:43:00,
2013-05-26 17:53:00,83.0,56.0,-100.00,ENE,75,10.0,-999.0,40,0.00,,,-99.99,321.600006,,2013-05-26 21:53:00,
2013-05-26 18:03:00,82.0,56.0,-100.00,ENE,65,9.0,-999.0,41,0.00,,,-99.99,245.800003,,2013-05-26 22:03:00,
2013-05-26 18:12:00,81.0,56.0,-100.00,ENE,77,9.0,-999.0,42,0.00,,,-99.99,218.500000,,2013-05-26 22:12:00,
2013-05-26 18:23:00,81.0,56.0,-100.00,ENE,77,9.0,-999.0,42,0.00,,,-99.99,218.500000,,2013-05-26 22:23:00,
2013-05-26 18:33:00,80.0,57.0,-100.00,East,81,9.0,-999.0,44,0.00,,,-99.99,157.399994,,2013-05-26 22:33:00,
2013-05-26 18:42:00,80.0,57.0,-100.00,East,79,9.0,-999.0,44,0.00,,,-99.99,176.100006,,2013-05-26 22:42:00,
2013-05-26 18:53:00,80.0,57.0,-100.00,East,79,9.0,-999.0,44,0.00,,,-99.99,176.100006,,2013-05-26 22:53:00,
2013-05-26 19:02:00,80.0,57.0,-100.00,ENE,71,9.0,-999.0,45,0.00,,,-99.99,242.899994,,2013-05-26 23:02:00,
2013-05-26 19:12:00,79.0,57.0,-100.00,ENE,73,10.0,-999.0,46,0.00,,,-99.99,176.199997,,2013-05-26 23:12:00,
2013-05-26 19:22:00,79.0,57.0,-100.00,ENE,73,10.0,-999.0,46,0.00,,,-99.99,176.199997,,2013-05-26 23:22:00,
2013-05-26 19:32:00,79.0,57.0,-100.00,ENE,73,9.0,-999.0,46,0.00,,,-99.99,185.600006,,2013-05-26 23:32:00,
2013-05-26 19:43:00,78.0,56.0,-100.00,ENE,76,10.0,-999.0,46,0.00,,,-99.99,125.500000,,2013-05-26 23:43:00,
2013-05-26 19:52:00,78.0,56.0,-100.00,ENE,76,10.0,-999.0,46,0.00,,,-99.99,125.500000,,2013-05-26 23:52:00,
2013-05-26 20:02:00,78.0,56.0,-100.00,ENE,67,9.0,-999.0,47,0.00,,,-99.99,77.500000,,2013-05-27 00:02:00,
2013-05-26 20:11:00,77.0,56.0,-100.00,ENE,66,7.0,-999.0,49,0.00,,,-99.99,30.900000,,2013-05-27 00:11:00,
2013-05-26 20:22:00,77.0,56.0,-100.00,ENE,66,7.0,-999.0,49,0.00,,,-99.99,30.900000,,2013-05-27 00:22:00,
2013-05-26 20:32:00,75.0,57.0,-100.00,ENE,68,6.0,-999.0,52,0.00,,,-99.99,10.800000,,2013-05-27 00:32:00,
2013-05-26 20:42:00,74.0,57.0,-100.00,ENE,68,6.0,-999.0,55,0.00,,,-99.99,1.500000,,2013-05-27 00:42:00,
2013-05-26 20:52:00,74.0,57.0,-100.00,ENE,68,6.0,-999.0,55,0.00,,,-99.99,1.500000,,2013-05-27 00:52:00,
2013-05-26 21:01:00,73.0,58.0,-100.00,ENE,70,5.0,-999.0,58,0.00,,,-99.99,0.100000,,2013-05-27 01:01:00,
2013-05-26 21:11:00,72.0,58.0,-100.00,ENE,68,5.0,-999.0,61,0.00,,,-99.99,0.000000,,2013-05-27 01:11:00,
2013-05-26 21:22:00,72.0,58.0,-100.00,ENE,68,5.0,-999.0,61,0.00,,,-99.99,0.000000,,2013-05-27 01:22:00,
2013-05-26 21:32:00,72.0,59.0,-100.00,ENE,71,5.0,-999.0,64,0.00,,,-99.99,0.000000,,2013-05-27 01:32:00,
2013-05-26 21:42:00,70.0,59.0,-100.00,East,85,5.0,-999.0,68,0.00,,,-99.99,0.000000,,2013-05-27 01:42:00,
2013-05-26 21:52:00,70.0,59.0,-100.00,East,85,5.0,-999.0,68,0.00,,,-99.99,0.000000,,2013-05-27 01:52:00,
2013-05-26 22:02:00,70.0,59.0,-100.00,East,83,4.0,-999.0,69,0.00,,,-99.99,0.000000,,2013-05-27 02:02:00,
2013-05-26 22:11:00,69.0,59.0,-100.00,ENE,78,4.0,-999.0,70,0.00,,,-99.99,0.000000,,2013-05-27 02:11:00,
2013-05-26 22:22:00,69.0,59.0,-100.00,ENE,78,4.0,-999.0,70,0.00,,,-99.99,0.000000,,2013-05-27 02:22:00,
2013-05-26 22:32:00,69.0,59.0,-100.00,ENE,77,5.0,-999.0,71,0.00,,,-99.99,0.000000,,2013-05-27 02:32:00,
2013-05-26 22:42:00,68.0,59.0,-100.00,East,84,4.0,-999.0,73,0.00,,,-99.99,0.000000,,2013-05-27 02:42:00,
2013-05-26 22:52:00,68.0,59.0,-100.00,East,84,4.0,-999.0,73,0.00,,,-99.99,0.000000,,2013-05-27 02:52:00,
2013-05-26 23:02:00,68.0,60.0,-100.00,ENE,70,4.0,-999.0,74,0.00,,,-99.99,0.000000,,2013-05-27 03:02:00,
2013-05-26 23:11:00,67.0,59.0,-100.00,East,79,4.0,-999.0,76,0.00,,,-99.99,0.000000,,2013-05-27 03:11:00,
2013-05-26 23:21:00,67.0,59.0,-100.00,East,79,4.0,-999.0,76,0.00,,,-99.99,0.000000,,2013-05-27 03:21:00,
2013-05-26 23:33:00,66.0,59.0,-100.00,ESE,102,4.0,-999.0,78,0.00,,,-99.99,0.000000,,2013-05-27 03:33:00,
2013-05-26 23:43:00,66.0,60.0,-100.00,ENE,76,3.0,-999.0,78,0.00,,,-99.99,0.000000,,2013-05-27 03:43:00,
2013-05-26 23:53:00,66.0,60.0,-100.00,ENE,76,3.0,-999.0,78,0.00,,,-99.99,0.000000,,2013-05-27 03:53:00,